sensor_id;sensor_type;location;lat;lon;timestamp;P1;durP1;ratioP1;P2;durP2;ratioP2
6878;SDS011;3478;51.462;7.338;2024-01-06T00:02:55;10.20;;;9.20;;
6878;SDS011;3478;51.462;7.338;2024-01-06T00:07:58;11.83;;;10.03;;
6878;SDS011;3478;51.462;7.338;2024-01-06T00:13:00;12.40;;;9.90;;
6878;SDS011;3478;51.462;7.338;2024-01-06T00:18:02;11.40;;;9.70;;
6878;SDS011;3478;51.462;7.338;2024-01-06T00:23:05;13.63;;;10.40;;
6878;SDS011;3478;51.462;7.338;2024-01-06T00:28:07;16.33;;;11.20;;
6878;SDS011;3478;51.462;7.338;2024-01-06T00:33:09;12.40;;;10.77;;
6878;SDS011;3478;51.462;7.338;2024-01-06T00:38:12;18.70;;;12.97;;
6878;SDS011;3478;51.462;7.338;2024-01-06T00:43:14;16.83;;;12.63;;
6878;SDS011;3478;51.462;7.338;2024-01-06T00:48:16;16.60;;;10.93;;
6878;SDS011;3478;51.462;7.338;2024-01-06T00:53:19;16.90;;;11.53;;
6878;SDS011;3478;51.462;7.338;2024-01-06T00:58:22;14.17;;;11.50;;
6878;SDS011;3478;51.462;7.338;2024-01-06T01:03:24;14.47;;;11.40;;
6878;SDS011;3478;51.462;7.338;2024-01-06T01:08:27;15.90;;;11.10;;
6878;SDS011;3478;51.462;7.338;2024-01-06T01:13:30;18.83;;;11.80;;
6878;SDS011;3478;51.462;7.338;2024-01-06T01:18:32;14.70;;;11.03;;
6878;SDS011;3478;51.462;7.338;2024-01-06T01:23:35;15.27;;;11.60;;
6878;SDS011;3478;51.462;7.338;2024-01-06T01:28:37;13.20;;;10.27;;
6878;SDS011;3478;51.462;7.338;2024-01-06T01:33:39;16.33;;;11.67;;
6878;SDS011;3478;51.462;7.338;2024-01-06T01:38:42;14.67;;;10.67;;
6878;SDS011;3478;51.462;7.338;2024-01-06T01:43:45;17.30;;;11.10;;
6878;SDS011;3478;51.462;7.338;2024-01-06T01:48:47;17.30;;;10.80;;
6878;SDS011;3478;51.462;7.338;2024-01-06T01:53:50;15.03;;;10.47;;
6878;SDS011;3478;51.462;7.338;2024-01-06T01:58:52;16.37;;;11.60;;
6878;SDS011;3478;51.462;7.338;2024-01-06T02:03:54;12.57;;;9.53;;
6878;SDS011;3478;51.462;7.338;2024-01-06T02:08:58;13.33;;;9.90;;
6878;SDS011;3478;51.462;7.338;2024-01-06T02:14:00;13.87;;;10.23;;
6878;SDS011;3478;51.462;7.338;2024-01-06T02:19:02;16.47;;;11.10;;
6878;SDS011;3478;51.462;7.338;2024-01-06T02:24:05;12.33;;;7.80;;
6878;SDS011;3478;51.462;7.338;2024-01-06T02:29:07;12.13;;;8.83;;
6878;SDS011;3478;51.462;7.338;2024-01-06T02:34:09;16.47;;;10.93;;
6878;SDS011;3478;51.462;7.338;2024-01-06T02:39:12;16.47;;;10.50;;
6878;SDS011;3478;51.462;7.338;2024-01-06T02:44:14;11.83;;;8.77;;
6878;SDS011;3478;51.462;7.338;2024-01-06T02:49:16;10.03;;;8.00;;
6878;SDS011;3478;51.462;7.338;2024-01-06T02:54:19;10.90;;;8.60;;
6878;SDS011;3478;51.462;7.338;2024-01-06T02:59:21;15.73;;;10.10;;
6878;SDS011;3478;51.462;7.338;2024-01-06T03:04:23;13.23;;;8.90;;
6878;SDS011;3478;51.462;7.338;2024-01-06T03:09:26;11.37;;;9.10;;
6878;SDS011;3478;51.462;7.338;2024-01-06T03:14:28;15.97;;;12.40;;
6878;SDS011;3478;51.462;7.338;2024-01-06T03:19:30;16.30;;;9.93;;
6878;SDS011;3478;51.462;7.338;2024-01-06T03:24:33;17.27;;;11.33;;
6878;SDS011;3478;51.462;7.338;2024-01-06T03:29:35;19.60;;;12.67;;
6878;SDS011;3478;51.462;7.338;2024-01-06T03:34:37;18.47;;;12.80;;
6878;SDS011;3478;51.462;7.338;2024-01-06T03:39:40;23.57;;;14.60;;
6878;SDS011;3478;51.462;7.338;2024-01-06T03:44:42;22.17;;;12.47;;
6878;SDS011;3478;51.462;7.338;2024-01-06T03:49:44;22.77;;;13.33;;
6878;SDS011;3478;51.462;7.338;2024-01-06T03:54:47;19.60;;;11.87;;
6878;SDS011;3478;51.462;7.338;2024-01-06T03:59:49;19.77;;;12.03;;
6878;SDS011;3478;51.462;7.338;2024-01-06T04:04:51;20.50;;;12.90;;
6878;SDS011;3478;51.462;7.338;2024-01-06T04:09:54;21.57;;;12.53;;
6878;SDS011;3478;51.462;7.338;2024-01-06T04:14:56;21.70;;;13.73;;
6878;SDS011;3478;51.462;7.338;2024-01-06T04:19:57;21.97;;;12.57;;
6878;SDS011;3478;51.462;7.338;2024-01-06T04:25:01;17.60;;;11.33;;
6878;SDS011;3478;51.462;7.338;2024-01-06T04:30:03;14.80;;;10.23;;
6878;SDS011;3478;51.462;7.338;2024-01-06T04:35:05;20.87;;;10.47;;
6878;SDS011;3478;51.462;7.338;2024-01-06T04:40:10;20.07;;;10.50;;
6878;SDS011;3478;51.462;7.338;2024-01-06T04:45:12;15.90;;;10.10;;
6878;SDS011;3478;51.462;7.338;2024-01-06T04:50:14;19.13;;;10.70;;
6878;SDS011;3478;51.462;7.338;2024-01-06T04:55:18;15.90;;;8.10;;
6878;SDS011;3478;51.462;7.338;2024-01-06T05:00:20;16.07;;;9.40;;
6878;SDS011;3478;51.462;7.338;2024-01-06T05:05:22;14.30;;;8.30;;
6878;SDS011;3478;51.462;7.338;2024-01-06T05:10:25;16.10;;;8.60;;
6878;SDS011;3478;51.462;7.338;2024-01-06T05:15:27;16.40;;;9.30;;
6878;SDS011;3478;51.462;7.338;2024-01-06T05:20:29;19.23;;;9.60;;
6878;SDS011;3478;51.462;7.338;2024-01-06T05:25:32;16.20;;;9.90;;
6878;SDS011;3478;51.462;7.338;2024-01-06T05:30:34;19.77;;;11.00;;
6878;SDS011;3478;51.462;7.338;2024-01-06T05:35:36;18.90;;;10.33;;
6878;SDS011;3478;51.462;7.338;2024-01-06T05:40:39;16.10;;;8.43;;
6878;SDS011;3478;51.462;7.338;2024-01-06T05:45:41;17.93;;;9.43;;
6878;SDS011;3478;51.462;7.338;2024-01-06T05:50:43;18.10;;;10.07;;
6878;SDS011;3478;51.462;7.338;2024-01-06T05:55:46;17.30;;;9.20;;
6878;SDS011;3478;51.462;7.338;2024-01-06T06:00:48;12.03;;;8.30;;
6878;SDS011;3478;51.462;7.338;2024-01-06T06:05:51;15.40;;;9.30;;
6878;SDS011;3478;51.462;7.338;2024-01-06T06:10:54;16.00;;;9.00;;
6878;SDS011;3478;51.462;7.338;2024-01-06T06:16:01;19.70;;;10.07;;
6878;SDS011;3478;51.462;7.338;2024-01-06T06:21:03;14.87;;;8.43;;
6878;SDS011;3478;51.462;7.338;2024-01-06T06:26:07;15.43;;;9.20;;
6878;SDS011;3478;51.462;7.338;2024-01-06T06:31:09;18.37;;;10.67;;
6878;SDS011;3478;51.462;7.338;2024-01-06T06:36:11;15.40;;;7.77;;
6878;SDS011;3478;51.462;7.338;2024-01-06T06:41:14;13.97;;;8.13;;
6878;SDS011;3478;51.462;7.338;2024-01-06T06:46:17;14.00;;;9.40;;
6878;SDS011;3478;51.462;7.338;2024-01-06T06:51:19;13.30;;;7.90;;
6878;SDS011;3478;51.462;7.338;2024-01-06T06:56:23;20.33;;;8.93;;
6878;SDS011;3478;51.462;7.338;2024-01-06T07:01:25;12.30;;;7.83;;
6878;SDS011;3478;51.462;7.338;2024-01-06T07:06:27;13.70;;;8.30;;
6878;SDS011;3478;51.462;7.338;2024-01-06T07:11:30;16.10;;;9.80;;
6878;SDS011;3478;51.462;7.338;2024-01-06T07:16:32;17.27;;;7.80;;
6878;SDS011;3478;51.462;7.338;2024-01-06T07:21:34;15.40;;;8.77;;
6878;SDS011;3478;51.462;7.338;2024-01-06T07:26:37;15.97;;;8.93;;
6878;SDS011;3478;51.462;7.338;2024-01-06T07:31:39;13.47;;;8.23;;
6878;SDS011;3478;51.462;7.338;2024-01-06T07:36:41;15.80;;;9.03;;
6878;SDS011;3478;51.462;7.338;2024-01-06T07:41:44;19.50;;;10.73;;
6878;SDS011;3478;51.462;7.338;2024-01-06T07:46:46;19.17;;;10.37;;
6878;SDS011;3478;51.462;7.338;2024-01-06T07:51:48;14.60;;;8.73;;
6878;SDS011;3478;51.462;7.338;2024-01-06T07:56:51;16.20;;;9.17;;
6878;SDS011;3478;51.462;7.338;2024-01-06T08:01:53;18.27;;;9.50;;
6878;SDS011;3478;51.462;7.338;2024-01-06T08:06:55;20.27;;;10.20;;
6878;SDS011;3478;51.462;7.338;2024-01-06T08:11:58;16.60;;;9.87;;
6878;SDS011;3478;51.462;7.338;2024-01-06T08:17:00;24.13;;;11.77;;
6878;SDS011;3478;51.462;7.338;2024-01-06T08:22:02;21.47;;;10.50;;
6878;SDS011;3478;51.462;7.338;2024-01-06T08:27:05;16.63;;;10.50;;
6878;SDS011;3478;51.462;7.338;2024-01-06T08:32:07;20.87;;;11.13;;
6878;SDS011;3478;51.462;7.338;2024-01-06T08:37:10;25.43;;;11.90;;
6878;SDS011;3478;51.462;7.338;2024-01-06T08:42:13;25.20;;;13.30;;
6878;SDS011;3478;51.462;7.338;2024-01-06T08:47:16;23.17;;;13.17;;
6878;SDS011;3478;51.462;7.338;2024-01-06T08:52:18;23.83;;;11.60;;
6878;SDS011;3478;51.462;7.338;2024-01-06T08:57:21;22.47;;;12.63;;
6878;SDS011;3478;51.462;7.338;2024-01-06T09:02:23;14.93;;;8.93;;
6878;SDS011;3478;51.462;7.338;2024-01-06T09:07:25;17.77;;;9.17;;
6878;SDS011;3478;51.462;7.338;2024-01-06T09:12:28;14.23;;;9.07;;
6878;SDS011;3478;51.462;7.338;2024-01-06T09:17:30;16.70;;;8.77;;
6878;SDS011;3478;51.462;7.338;2024-01-06T09:22:34;11.23;;;6.90;;
6878;SDS011;3478;51.462;7.338;2024-01-06T09:27:38;9.87;;;7.77;;
6878;SDS011;3478;51.462;7.338;2024-01-06T09:32:39;16.30;;;9.17;;
6878;SDS011;3478;51.462;7.338;2024-01-06T09:37:41;15.70;;;8.93;;
6878;SDS011;3478;51.462;7.338;2024-01-06T09:42:45;17.00;;;8.57;;
6878;SDS011;3478;51.462;7.338;2024-01-06T09:47:48;13.73;;;7.87;;
6878;SDS011;3478;51.462;7.338;2024-01-06T09:52:51;16.73;;;7.87;;
6878;SDS011;3478;51.462;7.338;2024-01-06T09:57:58;13.50;;;7.13;;
6878;SDS011;3478;51.462;7.338;2024-01-06T10:03:00;13.30;;;7.70;;
6878;SDS011;3478;51.462;7.338;2024-01-06T10:08:02;15.97;;;8.83;;
6878;SDS011;3478;51.462;7.338;2024-01-06T10:13:06;10.73;;;7.10;;
6878;SDS011;3478;51.462;7.338;2024-01-06T10:18:08;10.13;;;7.13;;
6878;SDS011;3478;51.462;7.338;2024-01-06T10:23:09;13.63;;;7.93;;
6878;SDS011;3478;51.462;7.338;2024-01-06T10:28:13;11.10;;;8.10;;
6878;SDS011;3478;51.462;7.338;2024-01-06T10:33:14;13.53;;;7.80;;
6878;SDS011;3478;51.462;7.338;2024-01-06T10:38:17;10.03;;;7.20;;
6878;SDS011;3478;51.462;7.338;2024-01-06T10:43:21;9.23;;;6.07;;
6878;SDS011;3478;51.462;7.338;2024-01-06T10:48:25;10.27;;;6.23;;
6878;SDS011;3478;51.462;7.338;2024-01-06T10:53:27;13.20;;;7.20;;
6878;SDS011;3478;51.462;7.338;2024-01-06T10:58:31;16.17;;;8.30;;
6878;SDS011;3478;51.462;7.338;2024-01-06T11:03:36;11.73;;;7.00;;
6878;SDS011;3478;51.462;7.338;2024-01-06T11:08:40;12.13;;;8.40;;
6878;SDS011;3478;51.462;7.338;2024-01-06T11:13:51;14.77;;;8.43;;
6878;SDS011;3478;51.462;7.338;2024-01-06T11:18:52;8.93;;;7.23;;
6878;SDS011;3478;51.462;7.338;2024-01-06T11:24:07;12.20;;;8.20;;
6878;SDS011;3478;51.462;7.338;2024-01-06T11:29:21;14.43;;;8.50;;
6878;SDS011;3478;51.462;7.338;2024-01-06T11:34:24;11.67;;;7.07;;
6878;SDS011;3478;51.462;7.338;2024-01-06T11:39:33;12.70;;;7.67;;
6878;SDS011;3478;51.462;7.338;2024-01-06T11:44:37;17.37;;;10.00;;
6878;SDS011;3478;51.462;7.338;2024-01-06T11:49:40;14.87;;;8.87;;
6878;SDS011;3478;51.462;7.338;2024-01-06T11:54:47;23.17;;;11.67;;
6878;SDS011;3478;51.462;7.338;2024-01-06T11:59:51;22.90;;;13.17;;
6878;SDS011;3478;51.462;7.338;2024-01-06T12:04:53;22.23;;;12.50;;
6878;SDS011;3478;51.462;7.338;2024-01-06T12:10:00;21.90;;;11.20;;
6878;SDS011;3478;51.462;7.338;2024-01-06T12:15:04;20.90;;;11.20;;
6878;SDS011;3478;51.462;7.338;2024-01-06T12:20:10;26.63;;;13.20;;
6878;SDS011;3478;51.462;7.338;2024-01-06T12:25:12;21.67;;;11.40;;
6878;SDS011;3478;51.462;7.338;2024-01-06T12:30:18;17.70;;;10.57;;
6878;SDS011;3478;51.462;7.338;2024-01-06T12:35:24;16.27;;;9.23;;
6878;SDS011;3478;51.462;7.338;2024-01-06T12:40:26;17.77;;;10.00;;
6878;SDS011;3478;51.462;7.338;2024-01-06T12:45:29;17.77;;;10.80;;
6878;SDS011;3478;51.462;7.338;2024-01-06T12:50:31;18.10;;;11.13;;
6878;SDS011;3478;51.462;7.338;2024-01-06T12:55:33;20.77;;;11.23;;
6878;SDS011;3478;51.462;7.338;2024-01-06T13:00:36;14.30;;;9.93;;
6878;SDS011;3478;51.462;7.338;2024-01-06T13:05:40;17.30;;;10.57;;
6878;SDS011;3478;51.462;7.338;2024-01-06T13:10:42;20.13;;;10.77;;
6878;SDS011;3478;51.462;7.338;2024-01-06T13:15:45;15.90;;;9.80;;
6878;SDS011;3478;51.462;7.338;2024-01-06T13:20:47;16.20;;;8.70;;
6878;SDS011;3478;51.462;7.338;2024-01-06T13:25:49;12.40;;;8.00;;
6878;SDS011;3478;51.462;7.338;2024-01-06T13:30:52;15.57;;;7.60;;
6878;SDS011;3478;51.462;7.338;2024-01-06T13:35:54;14.97;;;9.90;;
6878;SDS011;3478;51.462;7.338;2024-01-06T13:40:56;21.27;;;10.70;;
6878;SDS011;3478;51.462;7.338;2024-01-06T13:46:00;17.60;;;9.23;;
6878;SDS011;3478;51.462;7.338;2024-01-06T13:51:02;18.33;;;10.00;;
6878;SDS011;3478;51.462;7.338;2024-01-06T13:56:04;18.77;;;9.33;;
6878;SDS011;3478;51.462;7.338;2024-01-06T14:01:08;13.10;;;8.87;;
6878;SDS011;3478;51.462;7.338;2024-01-06T14:06:11;18.00;;;9.00;;
6878;SDS011;3478;51.462;7.338;2024-01-06T14:11:13;18.67;;;8.80;;
6878;SDS011;3478;51.462;7.338;2024-01-06T14:16:16;9.30;;;6.97;;
6878;SDS011;3478;51.462;7.338;2024-01-06T14:21:18;11.60;;;7.00;;
6878;SDS011;3478;51.462;7.338;2024-01-06T14:26:20;9.10;;;5.90;;
6878;SDS011;3478;51.462;7.338;2024-01-06T14:31:25;9.70;;;6.33;;
6878;SDS011;3478;51.462;7.338;2024-01-06T14:36:27;6.87;;;5.50;;
6878;SDS011;3478;51.462;7.338;2024-01-06T14:41:29;9.43;;;4.53;;
6878;SDS011;3478;51.462;7.338;2024-01-06T14:46:33;6.33;;;4.57;;
6878;SDS011;3478;51.462;7.338;2024-01-06T14:51:35;13.40;;;6.10;;
6878;SDS011;3478;51.462;7.338;2024-01-06T14:56:37;11.37;;;6.40;;
6878;SDS011;3478;51.462;7.338;2024-01-06T15:01:43;9.47;;;6.00;;
6878;SDS011;3478;51.462;7.338;2024-01-06T15:06:45;9.00;;;5.03;;
6878;SDS011;3478;51.462;7.338;2024-01-06T15:11:47;7.67;;;5.40;;
6878;SDS011;3478;51.462;7.338;2024-01-06T15:16:50;11.70;;;7.57;;
6878;SDS011;3478;51.462;7.338;2024-01-06T15:21:52;24.30;;;14.47;;
6878;SDS011;3478;51.462;7.338;2024-01-06T15:26:54;10.80;;;6.60;;
6878;SDS011;3478;51.462;7.338;2024-01-06T15:31:57;12.90;;;7.97;;
6878;SDS011;3478;51.462;7.338;2024-01-06T15:36:59;16.20;;;7.57;;
6878;SDS011;3478;51.462;7.338;2024-01-06T15:42:01;15.17;;;9.10;;
6878;SDS011;3478;51.462;7.338;2024-01-06T15:47:05;16.87;;;8.10;;
6878;SDS011;3478;51.462;7.338;2024-01-06T15:52:07;14.10;;;7.80;;
6878;SDS011;3478;51.462;7.338;2024-01-06T15:57:09;13.97;;;8.50;;
6878;SDS011;3478;51.462;7.338;2024-01-06T16:02:12;14.30;;;7.33;;
6878;SDS011;3478;51.462;7.338;2024-01-06T16:07:14;15.33;;;7.63;;
6878;SDS011;3478;51.462;7.338;2024-01-06T16:12:16;10.70;;;7.03;;
6878;SDS011;3478;51.462;7.338;2024-01-06T16:17:20;13.63;;;7.13;;
6878;SDS011;3478;51.462;7.338;2024-01-06T16:22:21;10.03;;;6.47;;
6878;SDS011;3478;51.462;7.338;2024-01-06T16:27:23;7.43;;;5.53;;
6878;SDS011;3478;51.462;7.338;2024-01-06T16:32:27;12.27;;;7.60;;
6878;SDS011;3478;51.462;7.338;2024-01-06T16:37:28;12.77;;;6.90;;
6878;SDS011;3478;51.462;7.338;2024-01-06T16:42:30;10.13;;;5.60;;
6878;SDS011;3478;51.462;7.338;2024-01-06T16:47:34;7.43;;;5.73;;
6878;SDS011;3478;51.462;7.338;2024-01-06T16:52:35;10.50;;;5.30;;
6878;SDS011;3478;51.462;7.338;2024-01-06T16:57:38;7.93;;;5.47;;
6878;SDS011;3478;51.462;7.338;2024-01-06T17:02:41;8.13;;;5.83;;
6878;SDS011;3478;51.462;7.338;2024-01-06T17:07:43;10.80;;;5.57;;
6878;SDS011;3478;51.462;7.338;2024-01-06T17:12:47;6.33;;;5.30;;
6878;SDS011;3478;51.462;7.338;2024-01-06T17:17:51;5.30;;;4.70;;
6878;SDS011;3478;51.462;7.338;2024-01-06T17:22:53;10.77;;;5.27;;
6878;SDS011;3478;51.462;7.338;2024-01-06T17:27:55;9.47;;;6.50;;
6878;SDS011;3478;51.462;7.338;2024-01-06T17:32:58;14.07;;;7.03;;
6878;SDS011;3478;51.462;7.338;2024-01-06T17:38:00;10.73;;;6.57;;
6878;SDS011;3478;51.462;7.338;2024-01-06T17:43:01;11.30;;;7.07;;
6878;SDS011;3478;51.462;7.338;2024-01-06T17:48:06;11.30;;;8.33;;
6878;SDS011;3478;51.462;7.338;2024-01-06T17:53:08;7.10;;;5.87;;
6878;SDS011;3478;51.462;7.338;2024-01-06T17:58:11;7.77;;;5.73;;
6878;SDS011;3478;51.462;7.338;2024-01-06T18:03:14;11.07;;;6.77;;
6878;SDS011;3478;51.462;7.338;2024-01-06T18:08:16;11.20;;;6.60;;
6878;SDS011;3478;51.462;7.338;2024-01-06T18:13:18;10.20;;;6.37;;
6878;SDS011;3478;51.462;7.338;2024-01-06T18:18:21;14.67;;;8.20;;
6878;SDS011;3478;51.462;7.338;2024-01-06T18:23:23;13.67;;;7.83;;
6878;SDS011;3478;51.462;7.338;2024-01-06T18:28:25;12.50;;;7.03;;
6878;SDS011;3478;51.462;7.338;2024-01-06T18:33:28;13.00;;;7.97;;
6878;SDS011;3478;51.462;7.338;2024-01-06T18:38:30;14.70;;;8.47;;
6878;SDS011;3478;51.462;7.338;2024-01-06T18:43:32;15.83;;;9.03;;
6878;SDS011;3478;51.462;7.338;2024-01-06T18:48:35;13.60;;;8.50;;
6878;SDS011;3478;51.462;7.338;2024-01-06T18:53:37;27.90;;;16.63;;
6878;SDS011;3478;51.462;7.338;2024-01-06T18:58:38;13.13;;;9.90;;
6878;SDS011;3478;51.462;7.338;2024-01-06T19:03:42;12.30;;;8.60;;
6878;SDS011;3478;51.462;7.338;2024-01-06T19:08:44;17.27;;;9.63;;
6878;SDS011;3478;51.462;7.338;2024-01-06T19:13:45;11.93;;;7.13;;
6878;SDS011;3478;51.462;7.338;2024-01-06T19:18:49;16.83;;;10.73;;
6878;SDS011;3478;51.462;7.338;2024-01-06T19:23:51;11.93;;;6.97;;
6878;SDS011;3478;51.462;7.338;2024-01-06T19:28:53;11.03;;;8.77;;
6878;SDS011;3478;51.462;7.338;2024-01-06T19:33:56;22.30;;;13.10;;
6878;SDS011;3478;51.462;7.338;2024-01-06T19:38:58;13.70;;;8.23;;
6878;SDS011;3478;51.462;7.338;2024-01-06T19:44:00;9.90;;;7.60;;
6878;SDS011;3478;51.462;7.338;2024-01-06T19:49:04;9.20;;;7.07;;
6878;SDS011;3478;51.462;7.338;2024-01-06T19:54:06;14.07;;;8.83;;
6878;SDS011;3478;51.462;7.338;2024-01-06T19:59:08;15.50;;;11.00;;
6878;SDS011;3478;51.462;7.338;2024-01-06T20:04:13;15.67;;;8.73;;
6878;SDS011;3478;51.462;7.338;2024-01-06T20:09:15;14.70;;;10.60;;
6878;SDS011;3478;51.462;7.338;2024-01-06T20:14:17;9.13;;;7.87;;
6878;SDS011;3478;51.462;7.338;2024-01-06T20:19:20;16.70;;;10.63;;
6878;SDS011;3478;51.462;7.338;2024-01-06T20:24:23;15.30;;;11.20;;
6878;SDS011;3478;51.462;7.338;2024-01-06T20:29:25;12.20;;;8.73;;
6878;SDS011;3478;51.462;7.338;2024-01-06T20:34:28;11.77;;;7.40;;
6878;SDS011;3478;51.462;7.338;2024-01-06T20:39:30;10.60;;;6.57;;
6878;SDS011;3478;51.462;7.338;2024-01-06T20:44:33;9.20;;;7.73;;
6878;SDS011;3478;51.462;7.338;2024-01-06T20:49:37;12.97;;;8.50;;
6878;SDS011;3478;51.462;7.338;2024-01-06T20:54:38;13.70;;;8.20;;
6878;SDS011;3478;51.462;7.338;2024-01-06T20:59:40;13.00;;;8.03;;
6878;SDS011;3478;51.462;7.338;2024-01-06T21:04:44;15.47;;;10.23;;
6878;SDS011;3478;51.462;7.338;2024-01-06T21:09:45;13.27;;;8.50;;
6878;SDS011;3478;51.462;7.338;2024-01-06T21:14:47;12.23;;;8.63;;
6878;SDS011;3478;51.462;7.338;2024-01-06T21:19:51;13.20;;;8.70;;
6878;SDS011;3478;51.462;7.338;2024-01-06T21:24:52;13.27;;;8.73;;
6878;SDS011;3478;51.462;7.338;2024-01-06T21:29:54;10.80;;;7.90;;
6878;SDS011;3478;51.462;7.338;2024-01-06T21:34:57;11.23;;;8.27;;
6878;SDS011;3478;51.462;7.338;2024-01-06T21:40:01;9.57;;;7.30;;
6878;SDS011;3478;51.462;7.338;2024-01-06T21:45:06;11.33;;;8.53;;
6878;SDS011;3478;51.462;7.338;2024-01-06T21:50:10;13.10;;;8.30;;
6878;SDS011;3478;51.462;7.338;2024-01-06T21:55:14;8.47;;;6.90;;
6878;SDS011;3478;51.462;7.338;2024-01-06T22:00:16;10.93;;;7.07;;
6878;SDS011;3478;51.462;7.338;2024-01-06T22:05:21;18.00;;;9.27;;
6878;SDS011;3478;51.462;7.338;2024-01-06T22:10:22;9.73;;;7.30;;
6878;SDS011;3478;51.462;7.338;2024-01-06T22:15:28;9.83;;;8.03;;
6878;SDS011;3478;51.462;7.338;2024-01-06T22:20:31;9.30;;;7.60;;
6878;SDS011;3478;51.462;7.338;2024-01-06T22:25:33;10.40;;;7.90;;
6878;SDS011;3478;51.462;7.338;2024-01-06T22:30:35;10.50;;;7.67;;
6878;SDS011;3478;51.462;7.338;2024-01-06T22:35:39;11.00;;;8.60;;
6878;SDS011;3478;51.462;7.338;2024-01-06T22:40:40;12.70;;;7.13;;
6878;SDS011;3478;51.462;7.338;2024-01-06T22:45:42;10.30;;;7.63;;
6878;SDS011;3478;51.462;7.338;2024-01-06T22:50:46;9.93;;;7.80;;
6878;SDS011;3478;51.462;7.338;2024-01-06T22:55:47;10.50;;;8.23;;
6878;SDS011;3478;51.462;7.338;2024-01-06T23:00:49;13.13;;;9.00;;
6878;SDS011;3478;51.462;7.338;2024-01-06T23:05:53;14.20;;;8.63;;
6878;SDS011;3478;51.462;7.338;2024-01-06T23:10:55;10.20;;;8.83;;
6878;SDS011;3478;51.462;7.338;2024-01-06T23:15:57;13.97;;;9.00;;
6878;SDS011;3478;51.462;7.338;2024-01-06T23:21:00;12.10;;;9.60;;
6878;SDS011;3478;51.462;7.338;2024-01-06T23:26:04;12.23;;;9.90;;
6878;SDS011;3478;51.462;7.338;2024-01-06T23:31:06;11.73;;;9.20;;
6878;SDS011;3478;51.462;7.338;2024-01-06T23:36:09;12.53;;;9.10;;
6878;SDS011;3478;51.462;7.338;2024-01-06T23:41:12;12.23;;;9.60;;
6878;SDS011;3478;51.462;7.338;2024-01-06T23:46:14;17.60;;;10.67;;
6878;SDS011;3478;51.462;7.338;2024-01-06T23:51:18;20.70;;;10.63;;
6878;SDS011;3478;51.462;7.338;2024-01-06T23:56:20;14.40;;;9.80;;
